Serra do Salitre, Brazil
Current Conditions -  °F | °C
As of 9:00 AM on Thursday 27 Nov 2014 (Local Time) from SBAX Reporting Station
Overcast Overcast  
Wind Chill: 72°   Ceiling: 300
Heat Index: 72°   Visibility: 4mi
Dew Point: 70°   Wind: 3mph
Humidity: 94%   Direction: 20°NNE
Pressure: 30.06"   Gusts: NA
Location:  19.11°S, 46.69°W
Report Text: SBAX 271100Z 02003KT 6000 BKN003 OVC010 22/21 Q1018
Loading
Personal Weather Stations






























Interactive Weather Map New forecast layout! Learn more

10-Day Weather Forecast

Advertisements
Track Severe Weather on mobile